Relevés horaires Bierset (Belgique)


Relevés horaires à Bierset - Vendredi 13 Juill. 2018
Heure UTC1 Température [°C] Vent [km/h] Hum. [%] Pres.4 [hPa] Visi. [Km] Nébu. [octa] Préc.5 [mm] Cond.
2m. Res. Ros. Dir.2 Vit. Moy. Raf.3
23:00 17.3 17.3 12.1 NNO 1.9 3.7 5.6 71 1020.6(0.8/3h) 35 3/8 -- --
22:00 18.8 18.8 12.3 NO 1.9 3.7 5.6 66 1020.3(0.8/3h) 35 4/8 -- --
21:00 19.5 19.5 12.8 ONO 3.7 5.6 9.3 65 1020.1(0.6/3h) 35 4/8 -- --
20:00 21.1 21.1 12.1 ONO 3.7 5.6 7.4 56 1019.5(0.0/3h) 35 4/8 -- --
19:00 23.3 23.3 11.3 NO 3.7 5.6 9.3 47 1019.2(-0.4/3h) 35 4/8 -- --
18:00 24.8 24.8 10.0 NO 3.7 7.4 13.0 39 1019.1(-0.5/3h) 35 6/8 0/12h
--
17:00 25.0 25.0 10.4 NO 3.7 5.6 9.3 40 1019.3(-0.7/3h) 35 6/8 -- --
16:00 25.7 25.7 9.8 NE 3.7 7.4 13.0 37 1019.4(-0.7/3h) 35 1/8 -- --
15:00 25.4 25.4 9.3 N 5.6 7.4 13.0 36 1019.6(-0.9/3h) 35 2/8 -- --
14:00 24.7 24.7 8.7 NO 5.6 7.4 13.0 36 1020(-0.9/3h) 35 1/8 -- --
13:00 24.7 24.7 9.4 N 5.6 5.6 11.1 38 1020.2(-0.8/3h) 40 6/8 -- --
12:00 23.9 23.9 10.4 N 5.6 5.6 11.1 43 1020.7(-0.4/3h) 25 7/8 0/6h
--
11:00 23.0 23.0 12.9 NNO 1.9 5.6 11.1 53 1021(-0.1/3h) 25 6/8 -- --
10:00 22.3 22.3 13.5 NNO 3.7 3.7 11.1 57 1021.1(0.3/3h) 30 6/8 -- --
09:00 20.7 20.7 13.5 N 3.7 3.7 9.3 63 1021.3(0.4/3h) 15 6/8 -- --
08:00 18.9 18.9 14.0 N 3.7 3.7 7.4 73 1021.4(0.5/3h) 15 6/8 -- --
07:00 17.0 17.0 13.9 ENE 3.7 3.7 9.3 82 1021.3(0.0/3h) 10 6/8 -- --
06:00 15.4 15.4 13.5 NNE 3.7 3.7 5.6 88 1021.3(0.2/3h) 10 7/8 0/12h
--
05:00 13.6 13.6 12.8 N 1.9 1.9 3.7 95 1021.3(0.0/3h) 7 6/8 -- --
04:00 13.4 13.4 12.6 NNO 1.9 1.9 3.7 95 1021.5(0.3/3h) 9 1/8 -- --
03:00 14.4 14.4 12.9 N 1.9 3.7 5.6 91 1021.2(0.2/3h) 12 0/8 -- --
02:00 14.0 14.0 12.4 N 1.9 3.7 5.6 90 1021.3(0.5/3h) 18 0/8 -- --
01:00 14.6 14.6 12.5 N 1.9 3.7 5.6 87 1021.1(0.4/3h) 30 0/8 -- --
00:00 15.7 15.7 12.2 NNO 1.9 5.6 9.3 80 1020.9(0.6/3h) 30 1/8 0/6h
0/24h
--

1 Coordinated Universal Time. Actuellement il est 14:00 locale et 12:00 UTC.

2 Le vent souffle depuis la direction indiquée vers la direction oposée.

3 Les rafales max. sont disponible 40 min après l'heure du relevé.

4 Pour les stations d'altitude (plus de 600m) le géopotentiel du niveau le plus proche de la pression obligatoire est indiqué.

5 Les stations disposant d'un diffuseur peuvent indiquer "trace". Cela signifie que des précipitations ont touchés le sol mais que la quantité est inférieure à 0.1 mm.

Récapitulatif de la journée
Température [°C] Vent [km/h] Ensoleillement4 [h] Precipitations totale5 [mm] Pression [Hpa]
Min1 Max.2 Moy.3 Max. Min Max.
13.2 26.1 4.8 13.0 0 h 0 min 0 1019.1 1021.5

1 Température minimale relevée entre 18:00 UTC la veille et 18:00 UTC le jour donné.

2 Température maximale relevée entre 06:00 UTC le jour donné et 06:00 UTC le lendemain.

3 Vent moyen de la journée basé sur les relevés horaires.

4 Ensoleillement en heures relevé entre 06:00 UTC la veille et 06:00 UTC le jour donné.

5 Précipitations totales tombées entre 06:00 UTC la jour donné et 06:00 UTC le lendemain.

Graphiques horaires